sensor_id;sensor_type;location;lat;lon;timestamp;pressure;altitude;pressure_sealevel;temperature;humidity
21730;BME280;11027;51.030;13.812;2022-11-15T00:01:35;100259.91;;;8.76;85.92
21730;BME280;11027;51.030;13.812;2022-11-15T00:04:03;100256.50;;;8.74;85.92
21730;BME280;11027;51.030;13.812;2022-11-15T00:06:28;100254.81;;;8.73;85.85
21730;BME280;11027;51.030;13.812;2022-11-15T00:08:53;100253.09;;;8.72;86.17
21730;BME280;11027;51.030;13.812;2022-11-15T00:11:18;100255.28;;;8.68;86.23
21730;BME280;11027;51.030;13.812;2022-11-15T00:13:44;100252.09;;;8.65;86.32
21730;BME280;11027;51.030;13.812;2022-11-15T00:16:09;100251.22;;;8.64;86.61
21730;BME280;11027;51.030;13.812;2022-11-15T00:18:35;100243.25;;;8.63;86.52
21730;BME280;11027;51.030;13.812;2022-11-15T00:21:06;100235.94;;;8.63;86.55
21730;BME280;11027;51.030;13.812;2022-11-15T00:23:32;100235.28;;;8.61;86.43
21730;BME280;11027;51.030;13.812;2022-11-15T00:25:58;100243.56;;;8.59;86.57
21730;BME280;11027;51.030;13.812;2022-11-15T00:28:24;100233.06;;;8.56;86.79
21730;BME280;11027;51.030;13.812;2022-11-15T00:30:49;100240.34;;;8.56;86.76
21730;BME280;11027;51.030;13.812;2022-11-15T00:33:15;100234.06;;;8.55;86.75
21730;BME280;11027;51.030;13.812;2022-11-15T00:35:40;100232.38;;;8.54;86.96
21730;BME280;11027;51.030;13.812;2022-11-15T00:38:06;100227.94;;;8.53;87.13
21730;BME280;11027;51.030;13.812;2022-11-15T00:40:31;100226.22;;;8.52;87.10
21730;BME280;11027;51.030;13.812;2022-11-15T00:42:56;100223.50;;;8.52;87.27
21730;BME280;11027;51.030;13.812;2022-11-15T00:45:22;100227.09;;;8.53;87.18
21730;BME280;11027;51.030;13.812;2022-11-15T00:47:48;100235.41;;;8.51;87.16
21730;BME280;11027;51.030;13.812;2022-11-15T00:50:13;100232.84;;;8.50;87.10
21730;BME280;11027;51.030;13.812;2022-11-15T00:52:39;100228.59;;;8.47;87.39
21730;BME280;11027;51.030;13.812;2022-11-15T00:55:04;100230.28;;;8.48;87.56
21730;BME280;11027;51.030;13.812;2022-11-15T00:57:30;100222.34;;;8.47;87.55
21730;BME280;11027;51.030;13.812;2022-11-15T00:59:55;100227.94;;;8.45;87.75
21730;BME280;11027;51.030;13.812;2022-11-15T01:02:20;100223.50;;;8.44;87.49
21730;BME280;11027;51.030;13.812;2022-11-15T01:04:46;100221.81;;;8.43;87.60
21730;BME280;11027;51.030;13.812;2022-11-15T01:07:11;100218.25;;;8.43;87.78
21730;BME280;11027;51.030;13.812;2022-11-15T01:09:36;100218.41;;;8.41;87.80
21730;BME280;11027;51.030;13.812;2022-11-15T01:12:02;100216.53;;;8.41;87.96
21730;BME280;11027;51.030;13.812;2022-11-15T01:14:27;100217.38;;;8.42;87.79
21730;BME280;11027;51.030;13.812;2022-11-15T01:16:52;100206.22;;;8.45;87.45
21730;BME280;11027;51.030;13.812;2022-11-15T01:19:18;100206.88;;;8.47;87.48
21730;BME280;11027;51.030;13.812;2022-11-15T01:21:43;100203.50;;;8.45;87.56
21730;BME280;11027;51.030;13.812;2022-11-15T01:24:11;100207.72;;;8.48;87.38
21730;BME280;11027;51.030;13.812;2022-11-15T01:26:37;100201.78;;;8.44;87.41
21730;BME280;11027;51.030;13.812;2022-11-15T01:29:03;100201.09;;;8.42;87.50
21730;BME280;11027;51.030;13.812;2022-11-15T01:31:28;100197.53;;;8.41;87.66
21730;BME280;11027;51.030;13.812;2022-11-15T01:33:53;100206.53;;;8.42;87.73
21730;BME280;11027;51.030;13.812;2022-11-15T01:36:21;100193.25;;;8.39;87.82
21730;BME280;11027;51.030;13.812;2022-11-15T01:38:47;100202.41;;;8.38;88.12
21730;BME280;11027;51.030;13.812;2022-11-15T01:41:19;100188.69;;;8.39;88.07
21730;BME280;11027;51.030;13.812;2022-11-15T01:43:48;100194.81;;;8.41;87.91
21730;BME280;11027;51.030;13.812;2022-11-15T01:46:30;100190.38;;;8.40;88.12
21730;BME280;11027;51.030;13.812;2022-11-15T01:49:00;100185.84;;;8.41;88.28
21730;BME280;11027;51.030;13.812;2022-11-15T01:51:30;100181.25;;;8.41;88.30
21730;BME280;11027;51.030;13.812;2022-11-15T01:54:02;100182.25;;;8.40;88.28
21730;BME280;11027;51.030;13.812;2022-11-15T01:56:30;100184.09;;;8.40;88.32
21730;BME280;11027;51.030;13.812;2022-11-15T01:58:59;100179.53;;;8.40;88.34
21730;BME280;11027;51.030;13.812;2022-11-15T02:01:26;100179.00;;;8.37;88.31
21730;BME280;11027;51.030;13.812;2022-11-15T02:03:59;100173.56;;;8.37;88.51
21730;BME280;11027;51.030;13.812;2022-11-15T02:06:26;100171.88;;;8.36;88.41
21730;BME280;11027;51.030;13.812;2022-11-15T02:08:52;100157.59;;;8.34;88.57
21730;BME280;11027;51.030;13.812;2022-11-15T02:11:18;100162.34;;;8.32;88.57
21730;BME280;11027;51.030;13.812;2022-11-15T02:13:44;100161.66;;;8.30;88.83
21730;BME280;11027;51.030;13.812;2022-11-15T02:29:59;100149.81;;;8.31;88.85
21730;BME280;11027;51.030;13.812;2022-11-15T02:32:40;100154.56;;;8.29;89.25
21730;BME280;11027;51.030;13.812;2022-11-15T02:37:58;100139.63;;;8.25;89.02
21730;BME280;11027;51.030;13.812;2022-11-15T02:43:10;100130.97;;;8.21;89.34
21730;BME280;11027;51.030;13.812;2022-11-15T02:46:07;100122.66;;;8.23;89.34
21730;BME280;11027;51.030;13.812;2022-11-15T02:48:35;100122.66;;;8.23;89.57
21730;BME280;11027;51.030;13.812;2022-11-15T02:51:01;100115.50;;;8.21;89.49
21730;BME280;11027;51.030;13.812;2022-11-15T02:53:27;100120.94;;;8.21;89.45
21730;BME280;11027;51.030;13.812;2022-11-15T02:55:53;100114.84;;;8.19;89.59
21730;BME280;11027;51.030;13.812;2022-11-15T02:58:45;100112.47;;;8.16;89.50
21730;BME280;11027;51.030;13.812;2022-11-15T03:07:12;100115.19;;;8.16;89.79
21730;BME280;11027;51.030;13.812;2022-11-15T03:09:44;100110.75;;;8.15;89.66
21730;BME280;11027;51.030;13.812;2022-11-15T03:12:19;100098.53;;;8.11;89.67
21730;BME280;11027;51.030;13.812;2022-11-15T03:14:59;100111.78;;;8.06;89.90
21730;BME280;11027;51.030;13.812;2022-11-15T03:17:30;100105.81;;;8.02;90.22
21730;BME280;11027;51.030;13.812;2022-11-15T03:20:00;100110.41;;;8.02;90.39
21730;BME280;11027;51.030;13.812;2022-11-15T03:22:27;100099.56;;;8.02;90.30
21730;BME280;11027;51.030;13.812;2022-11-15T03:24:57;100097.53;;;8.04;90.34
21730;BME280;11027;51.030;13.812;2022-11-15T03:27:28;100099.19;;;8.05;90.24
21730;BME280;11027;51.030;13.812;2022-11-15T03:30:00;100101.91;;;8.05;90.14
21730;BME280;11027;51.030;13.812;2022-11-15T03:32:29;100090.91;;;8.07;90.45
21730;BME280;11027;51.030;13.812;2022-11-15T03:35:03;100095.50;;;8.06;90.08
21730;BME280;11027;51.030;13.812;2022-11-15T03:37:43;100093.78;;;8.05;90.02
21730;BME280;11027;51.030;13.812;2022-11-15T03:40:10;100079.22;;;8.06;90.12
21730;BME280;11027;51.030;13.812;2022-11-15T03:42:42;100086.31;;;8.07;90.01
21730;BME280;11027;51.030;13.812;2022-11-15T03:45:31;100084.63;;;8.06;90.18
21730;BME280;11027;51.030;13.812;2022-11-15T03:48:05;100093.47;;;8.08;90.34
21730;BME280;11027;51.030;13.812;2022-11-15T03:50:34;100088.03;;;8.08;90.15
21730;BME280;11027;51.030;13.812;2022-11-15T03:53:00;100088.03;;;8.08;90.29
21730;BME280;11027;51.030;13.812;2022-11-15T03:55:25;100088.03;;;8.08;90.26
21730;BME280;11027;51.030;13.812;2022-11-15T03:57:53;100088.03;;;8.08;90.19
21730;BME280;11027;51.030;13.812;2022-11-15T04:00:19;100080.91;;;8.07;90.38
21730;BME280;11027;51.030;13.812;2022-11-15T04:02:44;100083.59;;;8.07;90.11
21730;BME280;11027;51.030;13.812;2022-11-15T04:05:10;100087.16;;;8.08;90.30
21730;BME280;11027;51.030;13.812;2022-11-15T04:07:35;100086.31;;;8.07;90.14
21730;BME280;11027;51.030;13.812;2022-11-15T04:10:00;100075.47;;;8.07;90.18
21730;BME280;11027;51.030;13.812;2022-11-15T04:12:37;100077.34;;;8.07;90.11
21730;BME280;11027;51.030;13.812;2022-11-15T04:15:15;100080.06;;;8.07;90.15
21730;BME280;11027;51.030;13.812;2022-11-15T04:17:52;100072.75;;;8.07;90.01
21730;BME280;11027;51.030;13.812;2022-11-15T04:20:27;100080.22;;;8.05;89.89
21730;BME280;11027;51.030;13.812;2022-11-15T04:23:22;100077.50;;;8.05;90.10
21730;BME280;11027;51.030;13.812;2022-11-15T04:26:12;100075.81;;;8.04;89.81
21730;BME280;11027;51.030;13.812;2022-11-15T04:28:39;100071.38;;;8.03;89.95
21730;BME280;11027;51.030;13.812;2022-11-15T04:31:24;100067.69;;;8.04;90.00
21730;BME280;11027;51.030;13.812;2022-11-15T04:33:50;100068.69;;;8.03;89.99
21730;BME280;11027;51.030;13.812;2022-11-15T04:36:15;100056.81;;;8.04;90.07
21730;BME280;11027;51.030;13.812;2022-11-15T04:38:59;100062.94;;;8.06;90.30
21730;BME280;11027;51.030;13.812;2022-11-15T04:41:24;100064.63;;;8.07;89.96
21730;BME280;11027;51.030;13.812;2022-11-15T04:43:49;100065.44;;;8.08;90.01
21730;BME280;11027;51.030;13.812;2022-11-15T04:46:14;100061.06;;;8.07;89.85
21730;BME280;11027;51.030;13.812;2022-11-15T04:48:40;100061.91;;;8.07;89.89
21730;BME280;11027;51.030;13.812;2022-11-15T04:51:05;100058.34;;;8.07;90.00
21730;BME280;11027;51.030;13.812;2022-11-15T04:53:30;100055.78;;;8.05;89.97
21730;BME280;11027;51.030;13.812;2022-11-15T04:55:55;100061.22;;;8.05;89.89
21730;BME280;11027;51.030;13.812;2022-11-15T04:58:21;100055.13;;;8.03;89.91
21730;BME280;11027;51.030;13.812;2022-11-15T05:00:46;100056.16;;;8.02;89.87
21730;BME280;11027;51.030;13.812;2022-11-15T05:03:11;100050.72;;;8.02;89.94
21730;BME280;11027;51.030;13.812;2022-11-15T05:05:57;100051.56;;;8.02;89.99
21730;BME280;11027;51.030;13.812;2022-11-15T05:08:22;100053.59;;;8.00;90.13
21730;BME280;11027;51.030;13.812;2022-11-15T05:10:47;100052.75;;;8.00;89.92
21730;BME280;11027;51.030;13.812;2022-11-15T05:13:13;100047.31;;;8.00;90.01
21730;BME280;11027;51.030;13.812;2022-11-15T05:15:38;100058.19;;;8.00;89.78
21730;BME280;11027;51.030;13.812;2022-11-15T05:18:03;100042.91;;;7.99;89.87
21730;BME280;11027;51.030;13.812;2022-11-15T05:20:29;100045.97;;;7.96;89.89
21730;BME280;11027;51.030;13.812;2022-11-15T05:22:54;100049.66;;;7.95;89.87
21730;BME280;11027;51.030;13.812;2022-11-15T05:25:21;100045.28;;;7.94;90.03
21730;BME280;11027;51.030;13.812;2022-11-15T05:27:46;100048.84;;;7.94;90.22
21730;BME280;11027;51.030;13.812;2022-11-15T05:30:12;100040.84;;;7.93;90.25
21730;BME280;11027;51.030;13.812;2022-11-15T05:32:37;100045.28;;;7.94;90.33
21730;BME280;11027;51.030;13.812;2022-11-15T05:35:03;100040.84;;;7.93;90.31
21730;BME280;11027;51.030;13.812;2022-11-15T05:37:32;100041.88;;;7.92;90.18
21730;BME280;11027;51.030;13.812;2022-11-15T05:39:57;100039.16;;;7.92;90.25
21730;BME280;11027;51.030;13.812;2022-11-15T05:42:24;100039.16;;;7.92;90.04
21730;BME280;11027;51.030;13.812;2022-11-15T05:44:50;100032.03;;;7.91;90.09
21730;BME280;11027;51.030;13.812;2022-11-15T05:47:21;100037.47;;;7.91;90.01
21730;BME280;11027;51.030;13.812;2022-11-15T05:49:49;100037.47;;;7.91;90.03
21730;BME280;11027;51.030;13.812;2022-11-15T05:52:19;100033.91;;;7.90;89.95
21730;BME280;11027;51.030;13.812;2022-11-15T05:54:45;100044.91;;;7.89;90.09
21730;BME280;11027;51.030;13.812;2022-11-15T05:57:11;100048.66;;;7.88;90.07
21730;BME280;11027;51.030;13.812;2022-11-15T05:59:37;100048.66;;;7.88;90.12
21730;BME280;11027;51.030;13.812;2022-11-15T06:02:03;100054.25;;;7.86;90.08
21730;BME280;11027;51.030;13.812;2022-11-15T06:04:28;100048.97;;;7.85;90.08
21730;BME280;11027;51.030;13.812;2022-11-15T06:06:53;100038.13;;;7.85;90.21
21730;BME280;11027;51.030;13.812;2022-11-15T06:09:18;100047.25;;;7.84;90.26
21730;BME280;11027;51.030;13.812;2022-11-15T06:11:44;100041.84;;;7.84;90.42
21730;BME280;11027;51.030;13.812;2022-11-15T06:14:09;100048.97;;;7.85;90.30
21730;BME280;11027;51.030;13.812;2022-11-15T06:16:34;100048.97;;;7.85;90.43
21730;BME280;11027;51.030;13.812;2022-11-15T06:18:59;100045.56;;;7.82;90.36
21730;BME280;11027;51.030;13.812;2022-11-15T06:21:25;100050.84;;;7.84;90.36
21730;BME280;11027;51.030;13.812;2022-11-15T06:23:52;100049.97;;;7.84;90.40
21730;BME280;11027;51.030;13.812;2022-11-15T06:26:18;100048.13;;;7.84;90.39
21730;BME280;11027;51.030;13.812;2022-11-15T06:28:43;100045.56;;;7.82;90.48
21730;BME280;11027;51.030;13.812;2022-11-15T06:31:09;100051.00;;;7.82;90.62
21730;BME280;11027;51.030;13.812;2022-11-15T06:33:39;100059.66;;;7.86;90.58
21730;BME280;11027;51.030;13.812;2022-11-15T06:36:08;100052.38;;;7.87;90.50
21730;BME280;11027;51.030;13.812;2022-11-15T06:38:34;100053.06;;;7.89;90.42
21730;BME280;11027;51.030;13.812;2022-11-15T06:41:04;100057.47;;;7.90;90.40
21730;BME280;11027;51.030;13.812;2022-11-15T06:43:29;100060.88;;;7.92;90.26
21730;BME280;11027;51.030;13.812;2022-11-15T06:45:55;100059.53;;;7.96;90.53
21730;BME280;11027;51.030;13.812;2022-11-15T06:48:20;100062.91;;;7.98;90.16
21730;BME280;11027;51.030;13.812;2022-11-15T06:50:57;100065.63;;;7.98;89.87
21730;BME280;11027;51.030;13.812;2022-11-15T06:53:23;100061.88;;;7.99;90.16
21730;BME280;11027;51.030;13.812;2022-11-15T06:55:49;100061.56;;;8.02;89.85
21730;BME280;11027;51.030;13.812;2022-11-15T06:58:14;100059.53;;;8.04;89.74
21730;BME280;11027;51.030;13.812;2022-11-15T07:00:40;100062.75;;;8.08;89.75
21730;BME280;11027;51.030;13.812;2022-11-15T07:03:05;100059.72;;;8.11;89.59
21730;BME280;11027;51.030;13.812;2022-11-15T07:05:31;100055.81;;;8.13;89.40
21730;BME280;11027;51.030;13.812;2022-11-15T07:07:57;100056.47;;;8.15;89.23
21730;BME280;11027;51.030;13.812;2022-11-15T07:10:23;100054.44;;;8.17;89.23
21730;BME280;11027;51.030;13.812;2022-11-15T07:12:53;100057.84;;;8.19;89.07
21730;BME280;11027;51.030;13.812;2022-11-15T07:15:20;100054.13;;;8.20;89.11
21730;BME280;11027;51.030;13.812;2022-11-15T07:17:46;100057.53;;;8.23;88.86
21730;BME280;11027;51.030;13.812;2022-11-15T07:20:13;100059.19;;;8.24;88.90
21730;BME280;11027;51.030;13.812;2022-11-15T07:22:39;100053.44;;;8.27;88.93
21730;BME280;11027;51.030;13.812;2022-11-15T07:25:04;100070.06;;;8.32;88.72
21730;BME280;11027;51.030;13.812;2022-11-15T07:27:30;100069.06;;;8.33;88.49
21730;BME280;11027;51.030;13.812;2022-11-15T07:29:55;100067.03;;;8.35;88.59
21730;BME280;11027;51.030;13.812;2022-11-15T07:32:20;100070.75;;;8.34;88.50
21730;BME280;11027;51.030;13.812;2022-11-15T07:34:46;100067.03;;;8.35;88.37
21730;BME280;11027;51.030;13.812;2022-11-15T07:37:12;100061.59;;;8.35;88.30
21730;BME280;11027;51.030;13.812;2022-11-15T07:39:37;100062.44;;;8.35;88.41
21730;BME280;11027;51.030;13.812;2022-11-15T07:42:03;100066.69;;;8.38;88.18
21730;BME280;11027;51.030;13.812;2022-11-15T07:44:46;100068.38;;;8.39;88.26
21730;BME280;11027;51.030;13.812;2022-11-15T07:47:12;100062.13;;;8.38;88.19
21730;BME280;11027;51.030;13.812;2022-11-15T07:49:37;100067.22;;;8.41;88.15
21730;BME280;11027;51.030;13.812;2022-11-15T07:52:03;100067.75;;;8.45;88.07
21730;BME280;11027;51.030;13.812;2022-11-15T07:54:28;100074.69;;;8.48;87.92
21730;BME280;11027;51.030;13.812;2022-11-15T07:56:53;100071.81;;;8.49;87.91
21730;BME280;11027;51.030;13.812;2022-11-15T07:59:18;100065.53;;;8.49;87.74
21730;BME280;11027;51.030;13.812;2022-11-15T08:01:44;100072.50;;;8.51;87.86
21730;BME280;11027;51.030;13.812;2022-11-15T08:04:10;100070.47;;;8.53;87.71
21730;BME280;11027;51.030;13.812;2022-11-15T08:06:36;100061.31;;;8.54;87.96
21730;BME280;11027;51.030;13.812;2022-11-15T08:09:01;100064.69;;;8.56;87.81
21730;BME280;11027;51.030;13.812;2022-11-15T08:11:27;100065.19;;;8.60;87.65
21730;BME280;11027;51.030;13.812;2022-11-15T08:13:52;100058.59;;;8.63;87.62
21730;BME280;11027;51.030;13.812;2022-11-15T08:16:17;100047.53;;;8.64;87.73
21730;BME280;11027;51.030;13.812;2022-11-15T08:18:42;100053.63;;;8.66;87.71
21730;BME280;11027;51.030;13.812;2022-11-15T08:21:09;100048.72;;;8.70;87.53
21730;BME280;11027;51.030;13.812;2022-11-15T08:23:34;100059.25;;;8.73;87.59
21730;BME280;11027;51.030;13.812;2022-11-15T08:26:01;100040.91;;;8.75;87.42
21730;BME280;11027;51.030;13.812;2022-11-15T08:28:27;100046.66;;;8.80;87.21
21730;BME280;11027;51.030;13.812;2022-11-15T08:30:52;100032.75;;;8.83;87.33
21730;BME280;11027;51.030;13.812;2022-11-15T08:33:17;100030.72;;;8.85;87.28
21730;BME280;11027;51.030;13.812;2022-11-15T08:35:43;100041.22;;;8.88;87.31
21730;BME280;11027;51.030;13.812;2022-11-15T08:38:09;100032.06;;;8.89;87.11
21730;BME280;11027;51.030;13.812;2022-11-15T08:40:34;100041.72;;;8.92;86.99
21730;BME280;11027;51.030;13.812;2022-11-15T08:43:00;100028.97;;;8.92;87.12
21730;BME280;11027;51.030;13.812;2022-11-15T08:45:27;100033.25;;;8.95;87.01
21730;BME280;11027;51.030;13.812;2022-11-15T08:47:53;100047.31;;;8.98;86.94
21730;BME280;11027;51.030;13.812;2022-11-15T08:50:18;100039.84;;;9.00;86.69
21730;BME280;11027;51.030;13.812;2022-11-15T08:52:43;100038.66;;;9.03;86.66
21730;BME280;11027;51.030;13.812;2022-11-15T08:55:09;100041.69;;;9.08;86.86
21730;BME280;11027;51.030;13.812;2022-11-15T08:57:34;100042.19;;;9.12;86.33
21730;BME280;11027;51.030;13.812;2022-11-15T08:59:59;100041.81;;;9.15;86.39
21730;BME280;11027;51.030;13.812;2022-11-15T09:02:25;100036.06;;;9.18;86.50
21730;BME280;11027;51.030;13.812;2022-11-15T09:04:50;100033.16;;;9.19;86.29
21730;BME280;11027;51.030;13.812;2022-11-15T09:07:15;100032.63;;;9.24;86.08
21730;BME280;11027;51.030;13.812;2022-11-15T09:09:40;100029.59;;;9.27;86.09
21730;BME280;11027;51.030;13.812;2022-11-15T09:12:06;100025.50;;;9.31;85.93
21730;BME280;11027;51.030;13.812;2022-11-15T09:14:32;100021.56;;;9.34;85.92
21730;BME280;11027;51.030;13.812;2022-11-15T09:16:57;100027.66;;;9.36;85.77
21730;BME280;11027;51.030;13.812;2022-11-15T09:19:23;100028.50;;;9.36;85.52
21730;BME280;11027;51.030;13.812;2022-11-15T09:21:48;100018.31;;;9.38;85.67
21730;BME280;11027;51.030;13.812;2022-11-15T09:24:14;100026.13;;;9.41;85.25
21730;BME280;11027;51.030;13.812;2022-11-15T09:26:40;100027.81;;;9.43;85.20
21730;BME280;11027;51.030;13.812;2022-11-15T09:29:06;100023.03;;;9.45;84.86
21730;BME280;11027;51.030;13.812;2022-11-15T09:31:31;100014.03;;;9.44;84.84
21730;BME280;11027;51.030;13.812;2022-11-15T09:33:56;100009.09;;;9.48;84.58
21730;BME280;11027;51.030;13.812;2022-11-15T09:36:22;100003.28;;;9.51;84.41
21730;BME280;11027;51.030;13.812;2022-11-15T09:38:47;100008.38;;;9.54;84.42
21730;BME280;11027;51.030;13.812;2022-11-15T09:43:57;100014.78;;;9.61;83.95
21730;BME280;11027;51.030;13.812;2022-11-15T09:49:02;100009.00;;;9.64;83.36
21730;BME280;11027;51.030;13.812;2022-11-15T09:51:32;100010.69;;;9.65;82.97
21730;BME280;11027;51.030;13.812;2022-11-15T09:54:16;100004.91;;;9.68;83.09
21730;BME280;11027;51.030;13.812;2022-11-15T09:56:44;100004.53;;;9.71;83.50
21730;BME280;11027;51.030;13.812;2022-11-15T10:04:45;100003.47;;;9.80;82.50
21730;BME280;11027;51.030;13.812;2022-11-15T10:07:16;100004.81;;;9.85;82.33
21730;BME280;11027;51.030;13.812;2022-11-15T10:09:49;100000.03;;;9.87;82.26
21730;BME280;11027;51.030;13.812;2022-11-15T10:12:17;99986.91;;;9.90;81.92
21730;BME280;11027;51.030;13.812;2022-11-15T10:14:43;99994.53;;;9.95;82.01
21730;BME280;11027;51.030;13.812;2022-11-15T10:17:31;99979.53;;;9.99;81.79
21730;BME280;11027;51.030;13.812;2022-11-15T10:20:17;99979.19;;;10.02;81.61
21730;BME280;11027;51.030;13.812;2022-11-15T10:22:48;99982.38;;;10.06;81.16
21730;BME280;11027;51.030;13.812;2022-11-15T10:28:09;99968.91;;;10.12;80.93
21730;BME280;11027;51.030;13.812;2022-11-15T10:30:41;99968.16;;;10.18;81.17
21730;BME280;11027;51.030;13.812;2022-11-15T10:41:39;99946.44;;;10.33;80.56
21730;BME280;11027;51.030;13.812;2022-11-15T10:46:44;99939.59;;;10.37;79.96
21730;BME280;11027;51.030;13.812;2022-11-15T10:49:14;99936.69;;;10.39;79.94
21730;BME280;11027;51.030;13.812;2022-11-15T10:51:52;99935.47;;;10.41;79.96
21730;BME280;11027;51.030;13.812;2022-11-15T10:54:30;99934.06;;;10.46;79.77
21730;BME280;11027;51.030;13.812;2022-11-15T10:57:00;99935.56;;;10.48;79.61
21730;BME280;11027;51.030;13.812;2022-11-15T10:59:32;99936.03;;;10.52;79.63
21730;BME280;11027;51.030;13.812;2022-11-15T11:01:59;99929.41;;;10.54;79.82
21730;BME280;11027;51.030;13.812;2022-11-15T11:04:24;99932.78;;;10.56;79.09
21730;BME280;11027;51.030;13.812;2022-11-15T11:09:38;99917.75;;;10.60;78.70
21730;BME280;11027;51.030;13.812;2022-11-15T11:12:05;99917.84;;;10.67;78.69
21730;BME280;11027;51.030;13.812;2022-11-15T11:14:35;99905.34;;;10.73;78.80
21730;BME280;11027;51.030;13.812;2022-11-15T11:17:11;99907.13;;;10.80;78.71
21730;BME280;11027;51.030;13.812;2022-11-15T11:19:48;99902.63;;;10.88;78.65
21730;BME280;11027;51.030;13.812;2022-11-15T11:22:46;99907.78;;;10.97;78.38
21730;BME280;11027;51.030;13.812;2022-11-15T11:31:03;99886.41;;;11.16;76.46
21730;BME280;11027;51.030;13.812;2022-11-15T11:33:40;99882.09;;;11.21;76.84
21730;BME280;11027;51.030;13.812;2022-11-15T11:36:36;99883.84;;;11.29;76.43
21730;BME280;11027;51.030;13.812;2022-11-15T11:42:18;99872.25;;;11.42;75.87
21730;BME280;11027;51.030;13.812;2022-11-15T11:47:37;99868.66;;;11.63;75.95
21730;BME280;11027;51.030;13.812;2022-11-15T11:50:21;99865.38;;;11.68;74.98
21730;BME280;11027;51.030;13.812;2022-11-15T11:52:59;99862.44;;;11.69;74.67
21730;BME280;11027;51.030;13.812;2022-11-15T11:55:31;99871.25;;;11.71;74.02
21730;BME280;11027;51.030;13.812;2022-11-15T11:58:14;99866.66;;;11.72;73.67
21730;BME280;11027;51.030;13.812;2022-11-15T12:00:56;99861.63;;;11.75;73.55
21730;BME280;11027;51.030;13.812;2022-11-15T12:03:48;99860.00;;;11.81;73.09
21730;BME280;11027;51.030;13.812;2022-11-15T12:12:04;99846.56;;;12.01;72.63
21730;BME280;11027;51.030;13.812;2022-11-15T12:14:40;99836.09;;;12.05;72.00
21730;BME280;11027;51.030;13.812;2022-11-15T12:17:11;99827.31;;;12.09;71.71
21730;BME280;11027;51.030;13.812;2022-11-15T12:19:37;99823.78;;;12.15;71.86
21730;BME280;11027;51.030;13.812;2022-11-15T12:24:45;99820.50;;;12.27;71.12
21730;BME280;11027;51.030;13.812;2022-11-15T12:27:57;99815.91;;;12.34;71.16
21730;BME280;11027;51.030;13.812;2022-11-15T12:30:19;99813.03;;;12.42;71.03
21730;BME280;11027;51.030;13.812;2022-11-15T12:32:59;99805.09;;;12.47;70.48
21730;BME280;11027;51.030;13.812;2022-11-15T12:38:02;99798.00;;;12.59;69.87
21730;BME280;11027;51.030;13.812;2022-11-15T12:40:38;99794.44;;;12.66;69.54
21730;BME280;11027;51.030;13.812;2022-11-15T12:43:36;99780.81;;;12.72;69.32
21730;BME280;11027;51.030;13.812;2022-11-15T12:46:05;99786.31;;;12.79;69.12
21730;BME280;11027;51.030;13.812;2022-11-15T12:48:47;99782.13;;;12.83;68.50
21730;BME280;11027;51.030;13.812;2022-11-15T12:51:12;99781.69;;;12.86;68.54
21730;BME280;11027;51.030;13.812;2022-11-15T12:53:38;99781.31;;;12.89;68.11
21730;BME280;11027;51.030;13.812;2022-11-15T12:58:55;99780.47;;;12.95;67.68
21730;BME280;11027;51.030;13.812;2022-11-15T13:07:00;99776.34;;;13.19;67.88
21730;BME280;11027;51.030;13.812;2022-11-15T13:12:08;99770.06;;;13.32;66.69
21730;BME280;11027;51.030;13.812;2022-11-15T13:17:37;99759.56;;;13.43;65.97
21730;BME280;11027;51.030;13.812;2022-11-15T13:28:10;99751.47;;;14.28;63.44
21730;BME280;11027;51.030;13.812;2022-11-15T13:30:51;99755.19;;;14.53;62.24
21730;BME280;11027;51.030;13.812;2022-11-15T13:33:21;99751.91;;;14.90;61.23
21730;BME280;11027;51.030;13.812;2022-11-15T13:35:55;99756.03;;;15.37;59.77
21730;BME280;11027;51.030;13.812;2022-11-15T13:40:49;99751.03;;;15.59;57.51
21730;BME280;11027;51.030;13.812;2022-11-15T13:46:12;99749.03;;;15.42;57.69
21730;BME280;11027;51.030;13.812;2022-11-15T13:48:39;99735.88;;;15.50;57.16
21730;BME280;11027;51.030;13.812;2022-11-15T13:51:23;99736.91;;;15.56;57.16
21730;BME280;11027;51.030;13.812;2022-11-15T13:56:48;99732.31;;;15.50;56.81
21730;BME280;11027;51.030;13.812;2022-11-15T13:59:35;99733.88;;;15.64;56.13
21730;BME280;11027;51.030;13.812;2022-11-15T14:02:24;99733.50;;;15.86;55.20
21730;BME280;11027;51.030;13.812;2022-11-15T14:04:55;99733.66;;;15.91;55.01
21730;BME280;11027;51.030;13.812;2022-11-15T14:07:24;99729.78;;;15.73;54.87
21730;BME280;11027;51.030;13.812;2022-11-15T14:09:51;99724.69;;;15.52;55.41
21730;BME280;11027;51.030;13.812;2022-11-15T14:12:34;99731.63;;;15.29;55.57
21730;BME280;11027;51.030;13.812;2022-11-15T14:15:19;99723.94;;;15.06;56.21
21730;BME280;11027;51.030;13.812;2022-11-15T14:17:49;99716.75;;;14.73;56.97
21730;BME280;11027;51.030;13.812;2022-11-15T14:20:36;99715.25;;;14.19;58.08
21730;BME280;11027;51.030;13.812;2022-11-15T14:23:05;99724.63;;;13.65;59.19
21730;BME280;11027;51.030;13.812;2022-11-15T14:25:52;99721.63;;;13.13;60.53
21730;BME280;11027;51.030;13.812;2022-11-15T14:30:44;99721.91;;;12.56;62.46
21730;BME280;11027;51.030;13.812;2022-11-15T14:33:24;99723.88;;;12.28;63.57
21730;BME280;11027;51.030;13.812;2022-11-15T14:35:53;99722.53;;;12.10;63.98
21730;BME280;11027;51.030;13.812;2022-11-15T14:38:19;99730.00;;;11.95;64.50
21730;BME280;11027;51.030;13.812;2022-11-15T14:40:44;99734.47;;;11.81;64.98
21730;BME280;11027;51.030;13.812;2022-11-15T14:43:11;99724.31;;;11.68;65.29
21730;BME280;11027;51.030;13.812;2022-11-15T14:45:36;99721.25;;;11.50;65.92
21730;BME280;11027;51.030;13.812;2022-11-15T14:48:02;99716.72;;;11.35;66.48
21730;BME280;11027;51.030;13.812;2022-11-15T14:50:27;99718.03;;;11.18;67.03